Time;durP1;ratioP1;P1;durP2;ratioP2;P2;SDS_P1;SDS_P2;PMS_P1;PMS_P2;Temp;Humidity;BMP_temperature;BMP_pressure;BME280_temperature;BME280_humidity;BME280_pressure;Samples;Min_cycle;Max_cycle;Signal;HPM_P1;HPM_P2
2022/08/13 00:01:39;;;;;;;12.05;5.53;;;26.10;66.50;;;;;;4935893;29;20286;-74
2022/08/13 00:04:12;;;;;;;10.75;6.13;;;26.00;66.50;;;;;;4941364;28;20199;-75
2022/08/13 00:07:08;;;;;;;12.80;6.30;;;26.00;66.60;;;;;;4934120;28;20191;-75
2022/08/13 00:09:39;;;;;;;14.70;5.90;;;26.00;66.50;;;;;;4933307;28;20894;-75
2022/08/13 00:15:01;;;;;;;10.20;5.80;;;26.00;66.60;;;;;;4936781;29;20838;-75
2022/08/13 00:20:23;;;;;;;9.00;5.75;;;25.90;66.60;;;;;;4921155;29;20721;-75
2022/08/13 00:22:56;;;;;;;10.70;5.53;;;25.90;67.50;;;;;;4916517;29;20421;-75
2022/08/13 00:25:29;;;;;;;12.52;6.10;;;25.90;66.70;;;;;;4914911;29;21101;-75
2022/08/13 00:28:14;;;;;;;10.20;5.90;;;25.90;66.90;;;;;;4920813;29;20376;-74
2022/08/13 00:30:46;;;;;;;11.13;5.90;;;25.80;66.80;;;;;;4921829;29;20586;-75
2022/08/13 00:33:18;;;;;;;12.65;5.53;;;25.80;66.80;;;;;;4911903;29;20191;-75
2022/08/13 00:36:09;;;;;;;11.45;6.53;;;25.80;67.10;;;;;;4911910;29;20196;-75
2022/08/13 00:38:46;;;;;;;12.60;6.35;;;25.80;67.10;;;;;;4920162;29;20235;-74
2022/08/13 00:44:20;;;;;;;9.88;5.72;;;25.80;67.40;;;;;;4909858;29;20210;-75
2022/08/13 00:48:41;;;;;;;10.68;6.15;;;25.70;67.20;;;;;;4915780;29;20231;-76
2022/08/13 00:49:40;;;;;;;11.27;6.70;;;25.80;67.20;;;;;;4917595;29;20195;-74
2022/08/13 00:52:40;;;;;;;12.43;6.60;;;25.70;67.10;;;;;;4915713;29;20285;-76
2022/08/13 00:55:16;;;;;;;12.93;6.43;;;25.80;67.20;;;;;;4917092;29;20451;-75
2022/08/13 00:57:51;;;;;;;11.15;6.13;;;25.80;67.30;;;;;;4919071;29;20858;-75
2022/08/13 01:00:36;;;;;;;14.40;6.47;;;25.70;67.30;;;;;;4919315;29;20201;-75
2022/08/13 01:03:09;;;;;;;9.27;6.55;;;25.70;67.40;;;;;;4914612;29;20218;-75
2022/08/13 01:05:45;;;;;;;13.88;6.25;;;25.70;67.40;;;;;;4920859;29;20237;-75
2022/08/13 01:08:16;;;;;;;10.45;6.68;;;25.60;67.30;;;;;;4918492;29;20203;-74
2022/08/13 01:10:50;;;;;;;11.77;6.30;;;25.70;67.50;;;;;;4921389;29;20192;-76
2022/08/13 01:13:28;;;;;;;11.30;6.53;;;25.60;68.40;;;;;;4915851;29;20204;-75
2022/08/13 01:16:00;;;;;;;9.50;5.85;;;25.60;67.60;;;;;;4916400;29;20230;-75
2022/08/13 01:18:30;;;;;;;13.43;6.18;;;25.60;67.70;;;;;;4916851;29;20390;-75
2022/08/13 01:21:08;;;;;;;11.20;6.57;;;25.60;67.90;;;;;;4934557;28;20190;-75
2022/08/13 01:23:44;;;;;;;11.38;6.45;;;25.60;68.00;;;;;;4934891;28;20253;-75
2022/08/13 01:26:32;;;;;;;13.23;7.05;;;25.50;67.90;;;;;;4930102;28;20194;-76
2022/08/13 01:29:09;;;;;;;12.82;7.10;;;25.50;68.00;;;;;;4935802;29;20222;-75
2022/08/13 01:31:41;;;;;;;11.30;6.28;;;25.50;68.00;;;;;;4938456;28;20709;-76
2022/08/13 01:34:13;;;;;;;12.23;7.30;;;25.50;68.20;;;;;;4938382;28;20769;-76
2022/08/13 01:36:54;;;;;;;8.73;5.95;;;25.40;68.30;;;;;;4936608;29;20199;-76
2022/08/13 01:39:26;;;;;;;10.60;6.13;;;25.40;68.50;;;;;;4939142;29;20687;-76
2022/08/13 01:42:04;;;;;;;12.25;6.82;;;25.40;68.50;;;;;;4940705;29;20668;-76
2022/08/13 01:44:38;;;;;;;11.93;6.30;;;25.40;68.50;;;;;;4930349;28;20281;-76
2022/08/13 01:50:31;;;;;;;11.00;6.28;;;25.30;68.70;;;;;;4929792;29;20615;-75
2022/08/13 01:53:04;;;;;;;14.18;6.95;;;25.20;68.60;;;;;;4934647;29;20298;-76
2022/08/13 01:55:39;;;;;;;12.40;6.75;;;25.20;68.80;;;;;;4940253;28;20215;-76
2022/08/13 01:58:29;;;;;;;10.02;6.40;;;25.20;69.00;;;;;;4939289;28;20206;-76
2022/08/13 02:01:03;;;;;;;11.57;6.43;;;25.10;69.00;;;;;;4929804;28;20218;-76
2022/08/13 02:03:37;;;;;;;10.93;6.80;;;25.10;69.10;;;;;;4933706;28;20198;-76
2022/08/13 02:06:16;;;;;;;11.32;6.28;;;25.00;69.10;;;;;;4938489;29;20198;-76
2022/08/13 02:08:58;;;;;;;12.35;7.45;;;25.00;69.20;;;;;;4940241;28;20366;-76
2022/08/13 02:11:34;;;;;;;12.32;6.85;;;24.90;69.20;;;;;;4940942;28;20285;-75
2022/08/13 02:14:13;;;;;;;12.25;6.50;;;24.90;69.40;;;;;;4931425;28;20191;-75
2022/08/13 02:16:51;;;;;;;10.93;7.18;;;24.90;69.40;;;;;;4939193;28;20234;-75
2022/08/13 02:19:21;;;;;;;13.15;7.32;;;24.80;69.50;;;;;;4933719;29;20230;-76
2022/08/13 02:21:59;;;;;;;11.00;6.70;;;24.80;69.70;;;;;;4929934;28;20885;-76
2022/08/13 02:24:37;;;;;;;15.25;7.55;;;24.80;69.80;;;;;;4933897;28;20252;-75
2022/08/13 02:27:07;;;;;;;14.00;7.13;;;24.70;69.80;;;;;;4935245;28;20198;-76
2022/08/13 02:29:37;;;;;;;15.02;7.72;;;24.70;70.00;;;;;;4941731;28;20260;-75
2022/08/13 02:32:09;;;;;;;13.88;7.40;;;24.70;70.10;;;;;;4943580;29;20292;-76
2022/08/13 02:34:44;;;;;;;12.93;7.30;;;24.60;70.20;;;;;;4938354;28;20253;-76
2022/08/13 02:37:15;;;;;;;11.55;7.55;;;24.60;70.20;;;;;;4935301;28;20225;-76
2022/08/13 02:41:38;;;;;;;11.73;6.93;;;24.60;70.20;;;;;;4942040;28;20885;-75
2022/08/13 02:42:59;;;;;;;12.88;7.15;;;24.50;70.40;;;;;;4937299;29;20194;-75
2022/08/13 02:45:29;;;;;;;13.20;8.23;;;24.50;70.40;;;;;;4940332;28;20198;-76
2022/08/13 02:48:05;;;;;;;13.63;7.53;;;24.50;70.40;;;;;;4938569;28;20682;-76
2022/08/13 02:50:53;;;;;;;14.18;7.55;;;24.50;70.60;;;;;;4943548;28;20282;-75
2022/08/13 02:53:25;;;;;;;12.70;7.55;;;24.40;70.50;;;;;;4939290;28;21028;-75
2022/08/13 02:56:05;;;;;;;14.23;8.18;;;24.40;70.70;;;;;;4917813;29;20322;-75
2022/08/13 02:58:38;;;;;;;11.88;7.20;;;24.30;70.60;;;;;;4936212;28;20897;-76
2022/08/13 03:01:14;;;;;;;13.82;7.07;;;24.30;70.80;;;;;;4943540;29;20230;-76
2022/08/13 03:03:50;;;;;;;12.05;6.28;;;24.30;70.80;;;;;;4937564;28;20213;-75
2022/08/13 03:06:19;;;;;;;17.55;7.00;;;24.30;71.00;;;;;;4935277;28;20600;-76
2022/08/13 03:08:49;;;;;;;11.60;6.90;;;24.20;71.10;;;;;;4940978;28;20616;-76
2022/08/13 03:11:21;;;;;;;16.30;7.68;;;24.20;71.10;;;;;;4940547;28;20206;-76
2022/08/13 03:13:56;;;;;;;12.95;7.45;;;24.20;71.30;;;;;;4937028;29;20207;-75
2022/08/13 03:16:27;;;;;;;13.77;6.70;;;24.20;71.30;;;;;;4940745;28;20939;-76
2022/08/13 03:19:00;;;;;;;14.13;7.82;;;24.10;71.30;;;;;;4937290;28;20256;-76
2022/08/13 03:21:33;;;;;;;15.35;8.23;;;24.10;71.50;;;;;;4940714;29;20222;-75
2022/08/13 03:24:13;;;;;;;15.18;8.90;;;24.10;71.50;;;;;;4933896;28;20209;-75
2022/08/13 03:26:56;;;;;;;17.17;8.20;;;24.10;71.60;;;;;;4941473;28;20213;-75
2022/08/13 03:29:26;;;;;;;16.92;8.32;;;24.10;71.70;;;;;;4934450;28;20266;-76
2022/08/13 03:32:15;;;;;;;14.63;7.90;;;24.00;71.60;;;;;;4937746;28;20614;-76
2022/08/13 03:34:44;;;;;;;17.27;8.23;;;24.00;71.80;;;;;;4936869;29;20194;-75
2022/08/13 03:37:13;;;;;;;17.88;8.55;;;24.00;71.90;;;;;;4932092;28;20356;-76
2022/08/13 03:39:43;;;;;;;16.27;8.63;;;24.00;71.90;;;;;;4936687;28;20198;-75
2022/08/13 03:42:12;;;;;;;19.98;8.85;;;24.00;71.90;;;;;;4941431;28;20677;-76
2022/08/13 03:45:03;;;;;;;13.52;8.32;;;24.00;72.00;;;;;;4937953;29;20203;-75
2022/08/13 03:47:32;;;;;;;16.27;9.18;;;23.90;71.90;;;;;;4936223;29;20861;-75
2022/08/13 03:50:03;;;;;;;14.25;8.52;;;23.90;72.10;;;;;;4940395;28;20205;-76
2022/08/13 03:52:34;;;;;;;15.00;9.18;;;23.90;72.20;;;;;;4935392;28;20234;-76
2022/08/13 03:55:08;;;;;;;15.68;9.20;;;23.90;72.30;;;;;;4928658;29;20739;-76
2022/08/13 03:57:40;;;;;;;22.15;10.05;;;23.90;72.40;;;;;;4938436;28;20301;-76
2022/08/13 04:00:31;;;;;;;17.58;9.80;;;23.90;72.40;;;;;;4939204;28;20198;-76
2022/08/13 04:03:02;;;;;;;18.33;9.70;;;23.90;72.50;;;;;;4940329;29;20692;-76
2022/08/13 04:05:30;;;;;;;18.25;9.25;;;23.90;72.50;;;;;;4932067;29;20192;-75
2022/08/13 04:08:20;;;;;;;17.55;9.27;;;23.90;72.50;;;;;;4932496;28;20206;-76
2022/08/13 04:10:49;;;;;;;21.33;10.00;;;23.90;72.70;;;;;;4926928;28;21088;-75
2022/08/13 04:13:24;;;;;;;17.20;9.10;;;23.90;74.10;;;;;;4938186;28;20225;-75
2022/08/13 04:16:16;;;;;;;15.63;8.57;;;23.90;73.80;;;;;;4936352;28;20226;-76
2022/08/13 04:18:46;;;;;;;17.27;9.02;;;23.90;73.70;;;;;;4935343;28;20223;-75
2022/08/13 04:21:17;;;;;;;15.75;8.55;;;24.00;73.60;;;;;;4938443;28;20187;-75
2022/08/13 04:23:52;;;;;;;17.65;8.85;;;23.90;73.50;;;;;;4935363;28;20190;-75
2022/08/13 04:26:26;;;;;;;19.73;8.70;;;23.90;73.50;;;;;;4940383;28;20190;-76
2022/08/13 04:29:02;;;;;;;15.20;8.15;;;23.90;73.40;;;;;;4936452;28;20250;-76
2022/08/13 04:31:32;;;;;;;20.08;8.82;;;24.00;73.60;;;;;;4942299;28;20221;-76
2022/08/13 04:34:21;;;;;;;16.38;8.77;;;24.00;73.60;;;;;;4935899;28;20684;-76
2022/08/13 04:37:10;;;;;;;16.33;8.90;;;24.00;73.60;;;;;;4936335;28;20214;-75
2022/08/13 04:39:49;;;;;;;20.95;8.43;;;24.00;74.00;;;;;;4937814;29;20198;-75
2022/08/13 04:42:48;;;;;;;13.77;8.15;;;24.00;73.70;;;;;;4935947;28;20250;-75
2022/08/13 04:45:21;;;;;;;14.20;8.68;;;24.10;73.70;;;;;;4936303;28;20469;-75
2022/08/13 04:47:58;;;;;;;17.48;8.43;;;24.10;73.70;;;;;;4935017;28;20299;-75
2022/08/13 04:50:31;;;;;;;15.85;7.65;;;24.20;73.60;;;;;;4933230;28;20285;-75
2022/08/13 04:53:00;;;;;;;16.55;8.20;;;24.20;73.50;;;;;;4936621;28;20191;-76
2022/08/13 04:55:36;;;;;;;14.27;8.77;;;24.20;73.50;;;;;;4935085;28;20219;-75
2022/08/13 04:58:29;;;;;;;16.23;7.65;;;24.30;73.50;;;;;;4934693;28;20202;-75
2022/08/13 05:00:58;;;;;;;16.92;7.65;;;24.30;73.50;;;;;;4931884;28;20265;-75
2022/08/13 05:03:29;;;;;;;14.25;8.10;;;24.30;73.60;;;;;;4940129;28;20241;-75
2022/08/13 05:06:12;;;;;;;15.63;7.47;;;24.30;74.40;;;;;;4934287;28;20199;-75
2022/08/13 05:08:41;;;;;;;13.50;7.70;;;24.40;73.50;;;;;;4940392;28;20971;-75
2022/08/13 05:11:26;;;;;;;17.38;8.65;;;24.50;73.50;;;;;;4936111;28;20668;-75
2022/08/13 05:13:57;;;;;;;15.27;8.00;;;24.50;73.40;;;;;;4933769;29;20222;-75
2022/08/13 05:16:26;;;;;;;12.50;7.18;;;24.50;73.30;;;;;;4937466;28;20207;-75
2022/08/13 05:18:58;;;;;;;13.65;8.15;;;24.60;73.30;;;;;;4931850;28;20233;-77
2022/08/13 05:21:27;;;;;;;12.00;7.22;;;24.70;73.20;;;;;;4935093;28;20225;-75
2022/08/13 05:24:16;;;;;;;16.33;7.85;;;24.70;73.00;;;;;;4941570;29;20191;-74
2022/08/13 05:27:05;;;;;;;14.27;7.65;;;24.80;73.10;;;;;;4937104;29;20207;-75
2022/08/13 05:29:39;;;;;;;13.68;8.13;;;24.80;73.00;;;;;;4932810;28;20222;-75
2022/08/13 05:32:28;;;;;;;13.07;7.35;;;24.90;73.00;;;;;;4939880;28;20246;-76
2022/08/13 05:35:10;;;;;;;14.30;7.82;;;24.90;72.80;;;;;;4940181;28;20668;-75
2022/08/13 05:37:40;;;;;;;12.00;7.22;;;25.00;72.70;;;;;;4937504;28;20215;-75
2022/08/13 05:40:29;;;;;;;10.82;6.57;;;25.00;72.70;;;;;;4934402;28;20265;-75
2022/08/13 05:43:10;;;;;;;13.40;7.10;;;25.10;72.60;;;;;;4934018;28;20190;-75
2022/08/13 05:45:44;;;;;;;10.88;7.13;;;25.10;72.50;;;;;;4932546;28;20877;-78
2022/08/13 05:48:34;;;;;;;16.38;7.97;;;25.20;72.50;;;;;;4935825;28;20648;-75
2022/08/13 05:51:07;;;;;;;13.63;7.85;;;25.20;72.50;;;;;;4938272;29;20201;-74
2022/08/13 05:53:39;;;;;;;12.73;7.50;;;25.30;72.50;;;;;;4935492;28;20210;-75
2022/08/13 05:56:32;;;;;;;16.75;7.85;;;25.30;72.30;;;;;;4943112;28;20585;-75
2022/08/13 05:59:02;;;;;;;14.35;7.30;;;25.40;72.30;;;;;;4942027;28;20199;-75
2022/08/13 06:04:25;;;;;;;12.65;6.68;;;25.50;72.00;;;;;;4934214;28;20214;-74
2022/08/13 06:07:13;;;;;;;13.52;6.75;;;25.50;71.80;;;;;;4944024;29;20210;-75
2022/08/13 06:09:42;;;;;;;14.60;7.53;;;25.60;71.70;;;;;;4939125;28;20205;-74
2022/08/13 06:12:11;;;;;;;11.45;6.72;;;25.60;71.40;;;;;;4936967;28;20195;-74
2022/08/13 06:14:59;;;;;;;13.05;7.25;;;25.70;71.30;;;;;;4936763;28;20199;-75
2022/08/13 06:17:36;;;;;;;11.23;6.40;;;25.70;71.20;;;;;;4944078;28;20271;-75
2022/08/13 06:20:09;;;;;;;11.07;7.00;;;25.80;71.10;;;;;;4933402;28;20584;-75
2022/08/13 06:22:47;;;;;;;13.90;7.35;;;25.80;70.90;;;;;;4939932;28;20261;-75
2022/08/13 06:25:21;;;;;;;11.75;7.43;;;25.90;70.80;;;;;;4942607;29;20186;-75
2022/08/13 06:27:50;;;;;;;12.75;7.70;;;26.00;70.60;;;;;;4939435;29;20206;-75
2022/08/13 06:30:25;;;;;;;14.50;7.13;;;26.10;70.40;;;;;;4930292;29;20265;-76
2022/08/13 06:33:02;;;;;;;17.42;6.63;;;26.10;70.10;;;;;;4938153;29;20288;-77
2022/08/13 06:35:52;;;;;;;10.68;6.70;;;26.10;69.60;;;;;;4935515;28;20202;-76
2022/08/13 06:38:30;;;;;;;10.40;5.93;;;26.20;69.60;;;;;;4937578;29;20229;-75
2022/08/13 06:41:02;;;;;;;13.27;6.38;;;26.30;69.60;;;;;;4938196;28;20987;-76
2022/08/13 06:43:32;;;;;;;12.48;6.43;;;26.40;69.60;;;;;;4933274;28;20708;-78
2022/08/13 06:46:24;;;;;;;13.57;7.18;;;26.40;70.10;;;;;;4926537;28;20198;-77
2022/08/13 06:48:57;;;;;;;9.75;6.45;;;26.50;68.90;;;;;;4937883;28;20236;-77
2022/08/13 06:51:25;;;;;;;11.80;6.57;;;26.60;68.70;;;;;;4929719;28;20585;-77
2022/08/13 06:53:55;;;;;;;11.68;5.93;;;26.60;68.50;;;;;;4934559;28;20190;-77
2022/08/13 06:56:44;;;;;;;11.65;6.38;;;26.60;68.20;;;;;;4937586;29;20194;-77
2022/08/13 06:59:35;;;;;;;15.32;6.75;;;26.70;68.00;;;;;;4927664;29;20677;-77
2022/08/13 07:02:25;;;;;;;10.45;6.68;;;26.80;67.80;;;;;;4930372;28;20274;-77
2022/08/13 07:04:58;;;;;;;10.00;6.43;;;26.80;67.60;;;;;;4940988;28;20780;-77
2022/08/13 07:07:27;;;;;;;13.15;6.80;;;26.90;67.20;;;;;;4941921;28;20245;-77
2022/08/13 07:10:01;;;;;;;14.18;7.10;;;27.00;67.00;;;;;;4935165;28;21054;-78
2022/08/13 07:12:33;;;;;;;10.68;6.68;;;27.00;66.90;;;;;;4931734;28;20235;-77
2022/08/13 07:15:02;;;;;;;12.57;6.93;;;27.10;66.70;;;;;;4935941;28;20209;-76
2022/08/13 07:17:45;;;;;;;11.52;6.70;;;27.20;66.70;;;;;;4937721;28;20869;-75
2022/08/13 07:20:13;;;;;;;10.63;6.28;;;27.20;66.60;;;;;;4938323;28;20733;-76
2022/08/13 07:22:53;;;;;;;11.40;7.30;;;27.30;66.40;;;;;;4937034;28;20430;-77
2022/08/13 07:25:44;;;;;;;11.10;7.50;;;27.40;67.00;;;;;;4938138;29;20201;-75
2022/08/13 07:28:34;;;;;;;12.10;6.40;;;27.40;65.60;;;;;;4945951;29;20198;-77
2022/08/13 07:31:23;;;;;;;11.25;6.88;;;27.50;65.40;;;;;;4939284;28;20191;-76
2022/08/13 07:33:54;;;;;;;13.73;7.30;;;27.50;65.20;;;;;;4943473;28;20186;-76
2022/08/13 07:36:29;;;;;;;12.15;7.05;;;27.60;65.30;;;;;;4938325;28;20194;-75
2022/08/13 07:39:02;;;;;;;13.70;7.03;;;27.60;65.20;;;;;;4936901;29;20214;-74
2022/08/13 07:41:40;;;;;;;9.77;6.65;;;27.70;64.90;;;;;;4933866;28;20832;-74
2022/08/13 07:44:29;;;;;;;12.00;6.70;;;27.70;65.80;;;;;;4932867;28;20199;-76
2022/08/13 07:47:14;;;;;;;12.88;7.47;;;27.80;64.80;;;;;;4939957;29;20201;-76
2022/08/13 07:49:53;;;;;;;13.10;7.20;;;27.90;64.40;;;;;;4936429;29;20751;-77
2022/08/13 07:52:27;;;;;;;11.38;6.38;;;27.90;64.60;;;;;;4937801;28;20304;-74
2022/08/13 07:54:58;;;;;;;10.02;6.65;;;28.00;64.70;;;;;;4944949;28;20245;-75
2022/08/13 07:57:30;;;;;;;14.75;6.28;;;28.10;64.50;;;;;;4947704;28;20229;-75
2022/08/13 08:00:09;;;;;;;11.82;7.13;;;28.10;64.10;;;;;;4941727;28;20210;-76
2022/08/13 08:02:55;;;;;;;12.65;7.00;;;28.10;64.00;;;;;;4938478;29;20649;-75
2022/08/13 08:05:25;;;;;;;11.63;7.50;;;28.20;63.80;;;;;;4948302;29;20202;-77
2022/08/13 08:08:09;;;;;;;13.77;6.90;;;28.30;63.50;;;;;;4934746;28;20186;-76
2022/08/13 08:10:40;;;;;;;17.42;7.25;;;28.30;63.20;;;;;;4934570;29;20295;-75
2022/08/13 08:13:10;;;;;;;12.52;6.45;;;28.40;63.20;;;;;;4935931;28;20199;-76
2022/08/13 08:15:42;;;;;;;11.43;6.88;;;28.40;63.10;;;;;;4945111;29;20198;-75
2022/08/13 08:18:32;;;;;;;13.60;7.32;;;28.50;62.60;;;;;;4937528;28;20235;-75
2022/08/13 08:21:23;;;;;;;15.38;7.40;;;28.50;62.30;;;;;;4943663;28;20228;-76
2022/08/13 08:24:13;;;;;;;10.20;6.20;;;28.60;62.40;;;;;;4942165;28;20249;-76
2022/08/13 08:26:58;;;;;;;12.48;6.72;;;28.60;62.20;;;;;;4930998;28;20270;-76
2022/08/13 08:29:31;;;;;;;10.90;7.32;;;28.70;62.30;;;;;;4941272;29;20194;-75
2022/08/13 08:32:04;;;;;;;11.57;7.20;;;28.70;62.00;;;;;;4935868;29;20206;-75
2022/08/13 08:34:39;;;;;;;9.73;5.78;;;28.80;62.00;;;;;;4937749;28;20207;-77
2022/08/13 08:37:10;;;;;;;14.57;7.18;;;28.80;61.70;;;;;;4942047;29;20396;-76
2022/08/13 08:42:40;;;;;;;11.70;7.07;;;28.90;61.50;;;;;;4941472;28;20199;-74
2022/08/13 08:45:28;;;;;;;9.10;6.47;;;29.00;61.40;;;;;;4936756;28;20257;-76
2022/08/13 08:48:19;;;;;;;13.27;6.40;;;29.10;61.50;;;;;;4937941;29;20262;-76
2022/08/13 08:50:54;;;;;;;8.27;6.10;;;29.10;60.70;;;;;;4938035;29;20392;-75
2022/08/13 08:53:25;;;;;;;11.38;6.63;;;29.20;60.70;;;;;;4940495;28;20649;-76
2022/08/13 08:56:16;;;;;;;12.50;6.15;;;29.20;60.50;;;;;;4929817;28;20593;-75
2022/08/13 08:58:45;;;;;;;11.98;6.65;;;29.20;60.50;;;;;;4939475;28;20206;-75
2022/08/13 09:01:16;;;;;;;12.23;7.03;;;29.30;60.50;;;;;;4939352;28;20201;-75
2022/08/13 09:03:49;;;;;;;11.77;7.32;;;29.40;60.40;;;;;;4941716;28;20194;-75
2022/08/13 09:06:28;;;;;;;10.05;6.32;;;29.40;60.00;;;;;;4943279;28;20285;-76
2022/08/13 09:09:17;;;;;;;10.68;6.13;;;29.50;60.00;;;;;;4936631;28;20198;-75
2022/08/13 09:11:48;;;;;;;13.48;7.20;;;29.60;59.40;;;;;;4939754;28;20209;-74
2022/08/13 09:14:25;;;;;;;10.98;6.15;;;29.60;59.30;;;;;;4940059;28;20991;-75
2022/08/13 09:16:58;;;;;;;14.15;7.60;;;29.70;59.40;;;;;;4931879;29;20459;-76
2022/08/13 09:19:27;;;;;;;8.60;6.43;;;29.80;59.10;;;;;;4935663;28;20244;-75
2022/08/13 09:22:20;;;;;;;11.00;6.78;;;29.80;59.00;;;;;;4941128;28;20226;-75
2022/08/13 09:24:56;;;;;;;9.90;6.05;;;29.80;58.90;;;;;;4931116;28;20195;-77
2022/08/13 09:27:28;;;;;;;11.25;6.50;;;29.90;58.90;;;;;;4944174;29;20289;-73
2022/08/13 09:30:17;;;;;;;11.27;6.72;;;29.90;58.60;;;;;;4932741;28;20203;-74
2022/08/13 09:32:56;;;;;;;10.32;6.55;;;29.90;58.00;;;;;;4934683;28;20639;-74
2022/08/13 09:35:28;;;;;;;11.55;7.30;;;30.00;58.00;;;;;;4940083;28;20198;-74
2022/08/13 09:38:06;;;;;;;12.38;5.63;;;30.00;57.80;;;;;;4943519;28;20217;-73
2022/08/13 09:40:46;;;;;;;12.50;5.47;;;30.10;57.30;;;;;;4940574;28;20228;-74
2022/08/13 09:43:41;;;;;;;10.82;6.60;;;30.10;58.00;;;;;;4926620;28;20770;-74
2022/08/13 09:46:23;;;;;;;13.02;5.93;;;30.30;57.50;;;;;;4930752;28;20203;-74
2022/08/13 09:48:59;;;;;;;10.00;6.28;;;30.30;56.80;;;;;;4937784;28;20830;-74
2022/08/13 09:51:30;;;;;;;9.75;6.30;;;30.40;57.10;;;;;;4934248;29;20203;-73
2022/08/13 09:54:22;;;;;;;13.05;6.03;;;30.40;56.50;;;;;;4909368;29;20202;-72
2022/08/13 09:56:57;;;;;;;8.88;6.55;;;30.50;56.30;;;;;;4940255;28;20245;-74
2022/08/13 09:59:28;;;;;;;9.75;5.43;;;30.60;56.10;;;;;;4941623;28;20210;-73
2022/08/13 10:02:02;;;;;;;7.63;5.40;;;30.60;55.50;;;;;;4943716;29;20198;-74
2022/08/13 10:04:38;;;;;;;9.02;6.13;;;30.70;55.80;;;;;;4940364;28;20194;-74
2022/08/13 10:07:08;;;;;;;9.10;5.93;;;30.60;55.40;;;;;;4939645;28;20526;-74
2022/08/13 10:09:44;;;;;;;8.95;5.80;;;30.70;55.50;;;;;;4937578;28;20272;-74
2022/08/13 10:12:33;;;;;;;8.95;5.72;;;30.70;55.50;;;;;;4935593;28;20206;-73
2022/08/13 10:15:01;;;;;;;7.97;5.40;;;30.70;55.50;;;;;;4931189;28;20203;-74
2022/08/13 10:17:44;;;;;;;11.35;5.88;;;30.70;55.00;;;;;;4935706;28;20201;-74
2022/08/13 10:20:22;;;;;;;11.00;5.47;;;30.80;54.20;;;;;;4937381;29;20226;-75
2022/08/13 10:22:51;;;;;;;8.68;5.97;;;30.80;53.60;;;;;;4941316;29;20199;-74
2022/08/13 10:25:23;;;;;;;9.95;5.57;;;30.90;53.90;;;;;;4939132;29;20621;-74
2022/08/13 10:28:17;;;;;;;9.02;5.72;;;31.00;54.30;;;;;;4934252;28;20199;-75
2022/08/13 10:31:00;;;;;;;8.45;5.60;;;31.10;54.10;;;;;;4942708;28;20210;-74
2022/08/13 10:33:54;;;;;;;8.13;5.05;;;31.10;54.00;;;;;;4934741;28;20194;-74
2022/08/13 10:36:27;;;;;;;9.40;6.07;;;31.20;53.70;;;;;;4939613;28;20364;-75
2022/08/13 10:39:06;;;;;;;9.23;5.63;;;31.20;53.60;;;;;;4936288;28;20292;-74
2022/08/13 10:41:42;;;;;;;8.80;5.78;;;31.20;53.10;;;;;;4932665;28;20624;-74
2022/08/13 10:44:30;;;;;;;7.70;5.40;;;31.30;53.00;;;;;;4937338;28;20215;-74
2022/08/13 10:46:59;;;;;;;12.10;5.68;;;31.40;53.20;;;;;;4938080;29;20226;-75
2022/08/13 10:49:29;;;;;;;8.95;6.00;;;31.40;53.10;;;;;;4930948;28;20603;-74
2022/08/13 10:52:02;;;;;;;8.50;5.13;;;31.50;53.00;;;;;;4940810;28;20266;-74
2022/08/13 10:54:33;;;;;;;12.35;5.10;;;31.50;52.60;;;;;;4945026;29;20190;-75
2022/08/13 10:57:05;;;;;;;8.40;5.35;;;31.50;52.40;;;;;;4941987;29;20203;-76
2022/08/13 10:59:34;;;;;;;8.93;5.53;;;31.60;52.30;;;;;;4947375;29;20234;-77
2022/08/13 11:02:06;;;;;;;8.13;5.03;;;31.70;52.20;;;;;;4939399;28;20198;-77
2022/08/13 11:04:39;;;;;;;7.50;4.85;;;31.70;52.00;;;;;;4943691;28;20222;-77
2022/08/13 11:07:20;;;;;;;8.50;5.60;;;31.70;51.50;;;;;;4946137;28;20190;-77
2022/08/13 11:09:49;;;;;;;9.43;5.03;;;31.80;51.70;;;;;;4935518;29;20191;-76
2022/08/13 11:12:19;;;;;;;7.20;5.38;;;31.80;51.40;;;;;;4938849;28;20199;-76
2022/08/13 11:14:49;;;;;;;8.50;5.13;;;31.90;50.70;;;;;;4934713;28;20190;-76
2022/08/13 11:17:19;;;;;;;7.38;4.85;;;31.80;50.80;;;;;;4942899;29;20211;-77
2022/08/13 11:20:13;;;;;;;11.32;5.63;;;31.80;51.10;;;;;;4943491;29;20237;-76
2022/08/13 11:22:50;;;;;;;8.15;5.13;;;31.80;51.30;;;;;;4943655;28;20605;-76
2022/08/13 11:25:19;;;;;;;8.38;4.72;;;31.70;51.10;;;;;;4932839;28;20195;-77
2022/08/13 11:28:12;;;;;;;7.82;5.05;;;31.70;51.00;;;;;;4945435;28;20261;-76
2022/08/13 11:30:47;;;;;;;8.07;4.85;;;31.70;51.00;;;;;;4941030;28;20199;-76
2022/08/13 11:33:18;;;;;;;7.00;4.80;;;31.80;50.90;;;;;;4936227;28;20195;-75
2022/08/13 11:35:47;;;;;;;8.45;5.28;;;31.80;50.90;;;;;;4941106;28;20203;-76
2022/08/13 11:38:21;;;;;;;8.32;5.18;;;32.00;51.20;;;;;;4937142;28;20313;-75
2022/08/13 11:40:50;;;;;;;8.00;5.05;;;32.00;51.10;;;;;;4948295;29;20320;-75
2022/08/13 11:43:22;;;;;;;8.38;5.38;;;32.10;51.00;;;;;;4942717;28;20239;-76
2022/08/13 11:46:10;;;;;;;9.00;5.03;;;32.20;50.90;;;;;;4940692;28;20198;-75
2022/08/13 11:48:41;;;;;;;9.38;4.63;;;32.20;50.40;;;;;;4942131;29;20203;-75
2022/08/13 11:51:09;;;;;;;7.78;5.00;;;32.10;50.60;;;;;;4938459;28;20202;-76
2022/08/13 11:53:39;;;;;;;8.90;5.32;;;32.20;50.70;;;;;;4942608;28;20202;-77
2022/08/13 11:56:28;;;;;;;9.07;5.20;;;32.10;50.70;;;;;;4931851;29;20215;-77
2022/08/13 11:58:57;;;;;;;8.93;5.20;;;32.00;50.60;;;;;;4944323;29;20214;-78
2022/08/13 12:01:26;;;;;;;7.07;4.80;;;32.10;50.60;;;;;;4941148;28;20609;-77
2022/08/13 12:04:10;;;;;;;8.70;4.88;;;32.00;50.20;;;;;;4940132;29;20227;-77
2022/08/13 12:06:47;;;;;;;8.18;5.60;;;32.20;50.40;;;;;;4935965;28;20194;-77
2022/08/13 12:09:20;;;;;;;9.00;4.80;;;32.20;50.40;;;;;;4939391;29;20297;-76
2022/08/13 12:12:09;;;;;;;6.82;4.93;;;32.20;50.20;;;;;;4934699;28;20191;-77
2022/08/13 12:14:50;;;;;;;10.25;5.28;;;32.20;50.00;;;;;;4943007;28;20717;-76
2022/08/13 12:17:19;;;;;;;9.30;5.60;;;32.30;49.20;;;;;;4940706;28;20195;-76
2022/08/13 12:20:00;;;;;;;8.77;4.88;;;32.30;48.90;;;;;;4942789;29;20254;-77
2022/08/13 12:22:28;;;;;;;8.32;5.45;;;32.30;48.90;;;;;;4941975;28;20262;-75
2022/08/13 12:24:58;;;;;;;8.82;5.60;;;32.30;49.30;;;;;;4943824;28;20202;-77
2022/08/13 12:27:46;;;;;;;8.85;5.43;;;32.40;49.50;;;;;;4934621;28;20783;-76
2022/08/13 12:30:17;;;;;;;8.20;5.20;;;32.50;49.50;;;;;;4944295;28;20204;-75
2022/08/13 12:32:58;;;;;;;9.20;5.22;;;32.50;49.30;;;;;;4938439;28;20531;-75
2022/08/13 12:35:26;;;;;;;9.68;5.05;;;32.60;48.80;;;;;;4941043;28;20290;-74
2022/08/13 12:38:16;;;;;;;8.80;5.97;;;32.60;48.40;;;;;;4943162;29;20206;-75
2022/08/13 12:41:00;;;;;;;8.05;5.40;;;32.70;48.10;;;;;;4942359;28;20214;-75
2022/08/13 12:43:47;;;;;;;12.75;5.88;;;32.70;48.20;;;;;;4941486;28;20186;-74
2022/08/13 12:46:35;;;;;;;8.63;5.32;;;32.70;48.40;;;;;;4936034;29;20191;-74
2022/08/13 12:49:07;;;;;;;8.88;5.25;;;32.70;48.50;;;;;;4933077;28;20213;-76
2022/08/13 12:51:42;;;;;;;8.10;5.18;;;32.80;48.80;;;;;;4931538;28;20201;-75
2022/08/13 12:54:24;;;;;;;7.68;5.38;;;32.80;48.20;;;;;;4937113;28;20194;-75
2022/08/13 12:57:18;;;;;;;6.85;4.93;;;32.90;48.60;;;;;;4934676;29;20186;-75
2022/08/13 13:00:10;;;;;;;7.60;5.20;;;32.90;48.60;;;;;;4934266;29;20246;-75
2022/08/13 13:02:44;;;;;;;8.93;5.80;;;32.90;48.50;;;;;;4933511;28;22191;-77
2022/08/13 13:05:16;;;;;;;10.05;5.15;;;33.10;48.80;;;;;;4939403;28;20663;-77
2022/08/13 13:07:54;;;;;;;9.63;5.43;;;33.10;48.70;;;;;;4935497;29;20206;-77
2022/08/13 13:10:38;;;;;;;8.23;5.35;;;33.10;48.80;;;;;;4933254;28;20202;-76
2022/08/13 13:13:16;;;;;;;11.52;5.68;;;33.20;49.00;;;;;;4942142;28;20201;-76
2022/08/13 13:16:07;;;;;;;9.43;4.97;;;33.20;48.90;;;;;;4931123;29;20206;-76
2022/08/13 13:18:56;;;;;;;10.60;5.10;;;33.20;48.90;;;;;;4941357;29;20230;-74
2022/08/13 13:21:28;;;;;;;8.80;5.35;;;33.20;48.70;;;;;;4939436;28;20216;-74
2022/08/13 13:24:09;;;;;;;10.98;5.65;;;33.20;48.60;;;;;;4944385;28;20604;-74
2022/08/13 13:26:48;;;;;;;9.00;5.72;;;33.20;48.70;;;;;;4936229;28;20336;-74
2022/08/13 13:29:32;;;;;;;9.15;5.70;;;33.20;48.60;;;;;;4940222;29;20202;-74
2022/08/13 13:32:11;;;;;;;7.72;5.57;;;33.20;48.80;;;;;;4939548;28;20957;-74
2022/08/13 13:35:00;;;;;;;8.63;5.47;;;33.30;48.70;;;;;;4940600;29;20705;-73
2022/08/13 13:37:49;;;;;;;9.13;5.50;;;33.30;48.80;;;;;;4940690;28;20190;-73
2022/08/13 13:40:35;;;;;;;12.20;5.07;;;33.30;48.50;;;;;;4937740;28;20709;-73
2022/08/13 13:43:09;;;;;;;8.80;5.50;;;33.30;48.60;;;;;;4942539;29;20205;-74
2022/08/13 13:45:53;;;;;;;9.07;5.53;;;33.30;48.50;;;;;;4941995;29;20194;-75
2022/08/13 13:48:31;;;;;;;8.70;5.35;;;33.30;48.20;;;;;;4936534;28;20197;-74
2022/08/13 13:51:05;;;;;;;9.40;5.82;;;33.40;48.30;;;;;;4936888;28;20195;-74